If you wish to contribute or participate in the discussions about articles you are invited to join SKYbrary as a registered user

 Actions

Kyiv/Zhuliany International Airport

From SKYbrary Wiki

UKKK
Airport
ICAO: UKKK
Summary
Name Kyiv/Zhuliany International Airport
Region Europe
Territory Ukraine UA.gif
Location Zhuliany
Serving
Coordinates 50° 24' 19.62" N, 30° 26' 46.68" E
Runways
Designator Length Width Surface ROPS
8/26 1800 m5,905.512 ft
49 m160.761 ft
CON no/no


METAR
Observation UKKK 180830Z 04004MPS 350V100 CAVOK 12/M01 Q1029 R08/CLRD70 NOSIG
Station Kyiv
Date/Time 18 April 2019 08:30:00
Wind direction 40°
Wind speed kts
Lowest cloud amount clouds and visibility OK
Temperature 12°C
Dew point
Humidity 40%
QNH 1029 hPa
Weather condition n/a

Kyiv/Zhuliany International Airport (IATA: IEV) is one of the two passenger airports of the Ukrainian capital Kiev.